ePrivacy and GPDR Cookie Consent by Cookie Consent
EmailTwitter


Surface observations / Canada / CYYZ (71624)

Regions: Quebec | Canada | USA | Europe | France | UK | Elsewhere
Station
Display
Info & Location for CYYZ (71624) | Help decoding METAR

Weather Conditions observed on 2022/08/18 at 06:00 UTC at TORONTO A, ON (CYYZ)

Sky conditions: clear.

Temperature: 19.0 Celsius.

Dewpoint: 17.0 Celsius.

Relative Humidity: 88%

Humidex 24.

Winds: North at 11 km/h or 6 knots.

Mean Sea level Pressure: 101.55 kilopascals.

Altimeter Setting (QNH): 101.52 kilopascals or 29.98 inches of mercury.

Horizontal visibility: 15.00 statute miles or 24.00 kilometers.

Coded METAR:

CYYZ 180600Z 35006KT 15SM SKC 19/17 A2998 RMK SLP155 DENSITY ALT 1100FT=